Time;durP1;ratioP1;P1;durP2;ratioP2;P2;SDS_P1;SDS_P2;PMS_P1;PMS_P2;Temp;Humidity;BMP_temperature;BMP_pressure;BME280_temperature;BME280_humidity;BME280_pressure;Samples;Min_cycle;Max_cycle;Signal;HPM_P1;HPM_P2
2021/06/19 00:00:03;;;;;;;9.00;8.10;;;;;;;27.20;38.95;100865.84;696956;28;21559;-62
2021/06/19 00:00:28;;;;;;;8.63;7.82;;;;;;;27.20;39.03;100870.56;699093;28;842;-62
2021/06/19 00:00:51;;;;;;;8.00;7.35;;;;;;;27.18;39.23;100870.84;701048;28;14889;-63
2021/06/19 00:01:12;;;;;;;10.80;7.85;;;;;;;27.16;39.31;100867.50;698025;28;65473;-62
2021/06/19 00:01:33;;;;;;;9.52;7.57;;;;;;;27.13;39.75;100865.31;700147;28;16977;-62
2021/06/19 00:01:55;;;;;;;7.88;7.10;;;;;;;27.12;39.49;100866.44;699403;28;17851;-62
2021/06/19 00:02:17;;;;;;;7.85;7.13;;;;;;;27.13;39.73;100865.31;700719;28;16642;-62
2021/06/19 00:02:38;;;;;;;8.30;7.60;;;;;;;27.13;39.25;100865.31;698286;28;46320;-63
2021/06/19 00:02:59;;;;;;;8.30;7.60;;;;;;;27.13;39.08;100866.16;699807;28;22503;-62
2021/06/19 00:03:21;;;;;;;8.23;7.43;;;;;;;27.14;39.18;100866.97;699786;28;10525;-62
2021/06/19 00:03:42;;;;;;;9.88;7.40;;;;;;;27.14;39.36;100867.78;698843;28;47494;-63
2021/06/19 00:04:03;;;;;;;7.85;7.13;;;;;;;27.14;39.14;100862.25;699795;28;16804;-62
2021/06/19 00:04:25;;;;;;;7.93;7.20;;;;;;;27.15;39.18;100865.88;698773;28;46391;-63
2021/06/19 00:04:46;;;;;;;8.10;7.43;;;;;;;27.12;39.32;100864.50;703313;28;1007;-63
2021/06/19 00:05:08;;;;;;;7.60;7.00;;;;;;;27.13;38.89;100866.16;701404;28;4200;-63
2021/06/19 00:05:31;;;;;;;8.10;7.40;;;;;;;27.15;38.78;100855.59;700459;28;40718;-62
2021/06/19 00:05:52;;;;;;;8.15;7.45;;;;;;;27.16;39.10;100859.19;701837;28;885;-63
2021/06/19 00:06:13;;;;;;;8.13;7.32;;;;;;;27.15;39.18;100861.16;701877;28;18605;-62
2021/06/19 00:06:34;;;;;;;8.57;7.53;;;;;;;27.15;39.33;100869.47;701843;28;12484;-62
2021/06/19 00:06:55;;;;;;;7.78;7.10;;;;;;;27.13;38.99;100863.38;700019;28;19198;-62
2021/06/19 00:07:17;;;;;;;7.95;7.00;;;;;;;27.15;39.20;100857.56;701042;28;874;-62
2021/06/19 00:07:39;;;;;;;8.68;7.10;;;;;;;27.16;39.29;100861.97;700261;28;1485;-63
2021/06/19 00:08:00;;;;;;;8.10;7.30;;;;;;;27.16;39.27;100856.41;699450;28;22393;-62
2021/06/19 00:08:23;;;;;;;7.80;7.10;;;;;;;27.15;39.41;100855.59;699034;28;46325;-62
2021/06/19 00:08:45;;;;;;;7.65;7.03;;;;;;;27.16;39.11;100861.97;699439;28;65305;-63
2021/06/19 00:09:06;;;;;;;8.18;7.43;;;;;;;27.14;39.11;100855.88;699338;28;44302;-63
2021/06/19 00:09:28;;;;;;;11.73;7.70;;;;;;;27.15;39.66;100861.16;699619;28;22471;-62
2021/06/19 00:09:49;;;;;;;9.20;7.30;;;;;;;27.13;39.10;100857.84;698844;28;23501;-62
2021/06/19 00:10:12;;;;;;;8.60;7.20;;;;;;;27.14;39.03;100865.03;699878;28;22409;-63
2021/06/19 00:10:35;;;;;;;7.97;7.28;;;;;;;27.13;39.00;100862.53;697639;28;65593;-62
2021/06/19 00:10:56;;;;;;;8.15;7.45;;;;;;;27.13;39.37;100860.63;697474;28;67503;-63
2021/06/19 00:11:17;;;;;;;8.88;7.40;;;;;;;27.13;39.18;100863.38;700997;28;21523;-63
2021/06/19 00:11:38;;;;;;;10.30;7.43;;;;;;;27.13;39.34;100857.00;699190;28;15901;-63
2021/06/19 00:12:00;;;;;;;8.20;7.40;;;;;;;27.12;39.76;100861.72;699831;28;22378;-62
2021/06/19 00:12:22;;;;;;;7.63;6.93;;;;;;;27.14;39.24;100858.66;698034;28;39555;-62
2021/06/19 00:12:44;;;;;;;8.10;7.30;;;;;;;27.11;39.73;100851.72;699370;28;46471;-63
2021/06/19 00:13:06;;;;;;;7.70;7.03;;;;;;;27.12;39.38;100856.19;698363;28;69352;-63
2021/06/19 00:13:27;;;;;;;8.10;7.40;;;;;;;27.11;39.42;100860.06;698656;28;46286;-63
2021/06/19 00:13:49;;;;;;;8.07;7.38;;;;;;;27.10;39.49;100860.34;699424;28;1083;-63
2021/06/19 00:14:10;;;;;;;8.18;7.38;;;;;;;27.11;39.56;100853.69;697604;28;46633;-63
2021/06/19 00:14:32;;;;;;;8.18;7.38;;;;;;;27.11;39.37;100856.47;699363;28;15204;-62
2021/06/19 00:14:53;;;;;;;8.10;7.40;;;;;;;27.09;39.35;100853.97;700388;28;881;-63
2021/06/19 00:15:17;;;;;;;7.35;6.72;;;;;;;27.11;39.67;100859.22;702829;28;12892;-62
2021/06/19 00:15:39;;;;;;;8.07;7.18;;;;;;;27.09;39.93;100856.75;699290;28;77237;-63
2021/06/19 00:16:00;;;;;;;7.60;6.90;;;;;;;27.09;39.47;100858.69;702370;28;1802;-63
2021/06/19 00:16:22;;;;;;;7.60;7.00;;;;;;;27.09;39.69;100853.16;699683;28;23265;-63
2021/06/19 00:16:43;;;;;;;7.18;6.57;;;;;;;27.08;39.75;100855.06;698031;28;46295;-63
2021/06/19 00:17:06;;;;;;;7.38;6.78;;;;;;;27.09;39.85;100855.94;701426;28;23487;-63
2021/06/19 00:17:27;;;;;;;8.50;7.70;;;;;;;27.09;39.62;100859.50;700138;28;46408;-63
2021/06/19 00:17:48;;;;;;;7.82;7.22;;;;;;;27.11;39.89;100859.22;699753;28;47043;-62
2021/06/19 00:18:09;;;;;;;7.85;7.22;;;;;;;27.11;39.86;100859.22;699281;28;22990;-63
2021/06/19 00:18:31;;;;;;;7.78;7.18;;;;;;;27.10;39.82;100858.41;700605;28;7323;-62
2021/06/19 00:18:52;;;;;;;7.90;7.22;;;;;;;27.11;39.31;100862.00;698919;28;44378;-63
2021/06/19 00:19:14;;;;;;;7.80;7.10;;;;;;;27.10;39.36;100852.88;702889;28;23432;-62
2021/06/19 00:19:35;;;;;;;7.45;6.80;;;;;;;27.11;39.31;100859.22;701624;28;38395;-62
2021/06/19 00:19:56;;;;;;;7.70;6.90;;;;;;;27.12;39.21;100860.91;701939;28;21342;-62
2021/06/19 00:20:20;;;;;;;7.65;6.95;;;;;;;27.11;39.46;100857.28;704393;28;886;-63
2021/06/19 00:20:44;;;;;;;8.10;7.30;;;;;;;27.10;39.54;100855.63;701629;28;60977;-62
2021/06/19 00:21:05;;;;;;;7.85;7.10;;;;;;;27.11;39.58;100859.22;703212;28;1378;-63
2021/06/19 00:21:26;;;;;;;7.85;7.10;;;;;;;27.09;39.51;100859.50;702717;28;8188;-63
2021/06/19 00:21:47;;;;;;;7.80;7.10;;;;;;;27.10;39.66;100857.56;702521;28;21498;-62
2021/06/19 00:22:08;;;;;;;8.45;7.47;;;;;;;27.09;39.81;100853.16;701995;28;22411;-62
2021/06/19 00:22:30;;;;;;;7.70;7.07;;;;;;;27.09;39.73;100858.69;701650;28;6294;-63
2021/06/19 00:22:52;;;;;;;8.05;7.35;;;;;;;27.08;39.45;100857.84;699376;28;2483;-63
2021/06/19 00:23:13;;;;;;;8.18;7.47;;;;;;;27.07;39.43;100856.22;698345;28;42927;-63
2021/06/19 00:23:34;;;;;;;8.40;7.60;;;;;;;27.08;39.55;100855.06;699458;28;23495;-63
2021/06/19 00:24:06;;;;;;;8.30;7.50;;;;;;;27.08;39.48;100848.72;698171;28;97015;-62
2021/06/19 00:24:28;;;;;;;8.13;7.32;;;;;;;27.07;39.58;100852.59;698179;28;2319;-63
2021/06/19 00:24:49;;;;;;;7.63;7.00;;;;;;;27.07;39.88;100852.59;697687;28;44370;-63
2021/06/19 00:25:12;;;;;;;8.35;7.57;;;;;;;27.07;39.74;100847.91;695095;28;22425;-63
2021/06/19 00:25:33;;;;;;;8.32;7.63;;;;;;;27.08;39.76;100854.25;694115;28;67464;-63
2021/06/19 00:25:55;;;;;;;7.90;7.20;;;;;;;27.07;39.38;100852.59;696617;28;14935;-63
2021/06/19 00:26:16;;;;;;;8.13;7.32;;;;;;;27.05;39.46;100854.81;697201;28;45312;-63
2021/06/19 00:26:38;;;;;;;8.00;7.30;;;;;;;27.04;39.90;100854.00;700519;28;23425;-63
2021/06/19 00:26:59;;;;;;;7.47;6.87;;;;;;;27.05;39.94;100852.06;699350;28;66766;-63
2021/06/19 00:27:21;;;;;;;7.50;6.80;;;;;;;27.04;39.55;100851.25;698277;28;46470;-63
2021/06/19 00:27:43;;;;;;;7.80;7.10;;;;;;;27.02;39.54;100850.66;699720;28;46379;-62
2021/06/19 00:28:04;;;;;;;7.57;6.93;;;;;;;27.02;40.00;100855.41;699640;28;31434;-63
2021/06/19 00:28:27;;;;;;;7.93;7.20;;;;;;;26.99;39.86;100856.81;700610;28;22305;-63
2021/06/19 00:28:48;;;;;;;7.95;7.22;;;;;;;27.01;39.89;100853.72;701424;28;842;-63
2021/06/19 00:29:10;;;;;;;8.05;7.28;;;;;;;27.01;39.65;100853.72;701343;28;23479;-63
2021/06/19 00:29:31;;;;;;;7.90;7.20;;;;;;;26.96;39.67;100854.63;700251;28;44398;-63
2021/06/19 00:29:52;;;;;;;7.60;7.00;;;;;;;26.96;39.84;100854.63;702361;28;21564;-63
2021/06/19 00:30:15;;;;;;;7.38;6.70;;;;;;;26.95;40.11;100855.72;702892;28;23400;-63
2021/06/19 00:30:37;;;;;;;8.35;7.35;;;;;;;26.93;40.14;100853.22;698370;28;44964;-63
2021/06/19 00:31:00;;;;;;;8.10;7.20;;;;;;;26.93;40.17;100856.00;700049;28;45211;-62
2021/06/19 00:31:21;;;;;;;8.98;7.47;;;;;;;26.92;40.21;100862.66;698586;28;36941;-63
2021/06/19 00:31:42;;;;;;;8.15;7.38;;;;;;;26.89;39.70;100854.91;698313;28;23457;-62
2021/06/19 00:32:04;;;;;;;7.50;6.80;;;;;;;26.88;40.26;100855.19;697289;28;22416;-62
2021/06/19 00:32:26;;;;;;;7.80;7.10;;;;;;;26.88;40.18;100856.03;697775;28;45332;-62
2021/06/19 00:32:48;;;;;;;8.10;7.30;;;;;;;26.88;39.94;100849.63;698514;28;69428;-62
2021/06/19 00:33:09;;;;;;;8.70;7.22;;;;;;;26.88;40.51;100852.41;699304;28;43437;-63
2021/06/19 00:33:31;;;;;;;8.90;7.32;;;;;;;26.87;40.21;100854.38;700041;28;21672;-62
2021/06/19 00:33:53;;;;;;;7.70;7.00;;;;;;;26.86;40.28;100857.41;700258;28;22348;-63
2021/06/19 00:34:15;;;;;;;7.75;7.05;;;;;;;26.86;40.21;100855.47;701756;28;45490;-62
2021/06/19 00:34:36;;;;;;;8.00;7.30;;;;;;;26.87;40.30;100857.13;701452;28;44305;-63
2021/06/19 00:34:57;;;;;;;7.97;7.20;;;;;;;26.89;40.40;100857.66;701751;28;22401;-63
2021/06/19 00:35:21;;;;;;;7.38;6.78;;;;;;;26.89;40.25;100852.13;701642;28;23352;-62
2021/06/19 00:35:42;;;;;;;7.80;7.20;;;;;;;26.90;40.12;100851.03;700456;28;93032;-63
2021/06/19 00:36:03;;;;;;;7.57;6.97;;;;;;;26.91;39.94;100855.47;703695;28;22423;-63
2021/06/19 00:36:24;;;;;;;8.15;7.40;;;;;;;26.94;39.84;100848.50;703025;28;818;-63
2021/06/19 00:36:45;;;;;;;8.30;7.50;;;;;;;26.94;39.93;100856.81;703228;28;19796;-62
2021/06/19 00:37:07;;;;;;;8.43;7.50;;;;;;;26.94;40.20;100854.03;702434;28;21717;-63
2021/06/19 00:37:28;;;;;;;8.85;7.43;;;;;;;26.95;39.90;100853.75;698668;28;30987;-63
2021/06/19 00:37:51;;;;;;;8.27;7.47;;;;;;;26.95;39.68;100851.00;700212;28;23666;-63
2021/06/19 00:38:12;;;;;;;8.20;7.40;;;;;;;26.96;40.03;100858.19;696077;28;61775;-63
2021/06/19 00:38:33;;;;;;;7.82;7.03;;;;;;;26.97;39.90;100848.78;699797;28;22540;-63
2021/06/19 00:38:55;;;;;;;8.40;7.50;;;;;;;26.99;40.19;100854.03;700378;28;22068;-62
2021/06/19 00:39:16;;;;;;;8.40;7.15;;;;;;;27.01;39.91;100848.19;700905;28;45322;-64
2021/06/19 00:39:37;;;;;;;7.00;6.50;;;;;;;27.01;39.55;100851.81;704759;28;1026;-63
2021/06/19 00:39:58;;;;;;;7.50;6.90;;;;;;;27.01;39.65;100853.72;703195;28;21441;-63
2021/06/19 00:40:20;;;;;;;7.65;6.95;;;;;;;27.02;40.04;100849.84;701514;28;22453;-63
2021/06/19 00:40:42;;;;;;;7.43;6.82;;;;;;;27.00;40.25;100852.09;703247;28;22456;-63
2021/06/19 00:41:03;;;;;;;8.48;7.00;;;;;;;26.99;39.72;100851.28;700765;28;69377;-63
2021/06/19 00:41:24;;;;;;;10.50;6.97;;;;;;;27.00;40.25;100854.88;701938;28;22399;-62
2021/06/19 00:41:45;;;;;;;7.30;6.65;;;;;;;26.98;39.80;100846.84;700248;28;1039;-62
2021/06/19 00:42:07;;;;;;;7.80;7.00;;;;;;;26.97;40.27;100859.88;698550;28;22364;-62
2021/06/19 00:42:28;;;;;;;8.25;7.00;;;;;;;26.95;40.14;100850.16;699284;28;21043;-63
2021/06/19 00:42:52;;;;;;;8.95;7.03;;;;;;;26.95;39.70;100856.53;699531;28;22370;-63
2021/06/19 00:43:13;;;;;;;8.57;7.15;;;;;;;26.95;39.75;100858.50;699799;28;38096;-63
2021/06/19 00:43:34;;;;;;;9.82;7.40;;;;;;;26.94;40.04;100857.66;702218;28;8119;-63
2021/06/19 00:43:59;;;;;;;9.48;7.30;;;;;;;26.94;39.92;100852.13;702850;28;14908;-63
2021/06/19 00:44:22;;;;;;;8.60;7.20;;;;;;;26.93;40.33;100853.22;699828;28;12105;-63
2021/06/19 00:44:43;;;;;;;8.32;6.97;;;;;;;26.92;40.38;100857.09;698915;28;997;-63
2021/06/19 00:45:06;;;;;;;7.70;7.00;;;;;;;26.91;40.27;100852.69;698085;28;10003;-63
2021/06/19 00:45:30;;;;;;;7.80;7.07;;;;;;;26.89;40.61;100852.13;696558;28;69352;-63
2021/06/19 00:45:52;;;;;;;7.80;7.00;;;;;;;26.90;40.48;100852.97;695485;28;91399;-63
2021/06/19 00:46:15;;;;;;;8.05;7.35;;;;;;;26.90;40.62;100850.22;697502;28;24039;-63
2021/06/19 00:46:36;;;;;;;7.93;7.10;;;;;;;26.89;40.62;100848.53;698741;28;47302;-63
2021/06/19 00:46:57;;;;;;;7.93;7.07;;;;;;;26.87;40.74;100854.38;699430;28;21533;-63
2021/06/19 00:47:18;;;;;;;7.72;7.10;;;;;;;26.87;40.74;100846.06;698969;28;43481;-63
2021/06/19 00:47:40;;;;;;;7.75;7.05;;;;;;;26.86;40.20;100844.38;701018;28;1160;-63
2021/06/19 00:48:06;;;;;;;7.55;6.90;;;;;;;26.85;40.42;100845.50;699665;28;23501;-63
2021/06/19 00:48:27;;;;;;;7.73;7.13;;;;;;;26.86;40.15;100846.34;697769;28;123448;-63
2021/06/19 00:48:48;;;;;;;7.75;7.05;;;;;;;26.83;40.70;100853.25;700296;28;46423;-63
2021/06/19 00:49:09;;;;;;;7.57;6.95;;;;;;;26.84;40.77;100849.38;697533;28;23422;-63
2021/06/19 00:49:31;;;;;;;7.68;6.97;;;;;;;26.85;40.36;100845.50;697328;28;23436;-63
2021/06/19 00:49:53;;;;;;;10.02;7.18;;;;;;;26.86;40.41;100838.84;697399;28;44278;-63
2021/06/19 00:50:14;;;;;;;7.93;7.20;;;;;;;26.86;40.35;100847.16;698347;28;1194;-63
2021/06/19 00:50:36;;;;;;;7.28;6.78;;;;;;;26.86;40.52;100847.16;700250;28;1910;-63
2021/06/19 00:50:58;;;;;;;7.47;6.78;;;;;;;26.88;40.32;100844.09;699124;28;45238;-63
2021/06/19 00:51:19;;;;;;;7.47;6.88;;;;;;;26.89;40.18;100851.31;697422;28;42349;-63
2021/06/19 00:51:41;;;;;;;7.80;7.20;;;;;;;26.90;40.38;100848.25;699748;28;23446;-63
2021/06/19 00:52:02;;;;;;;7.85;7.05;;;;;;;26.91;40.11;100847.16;698936;28;46382;-63
2021/06/19 00:52:23;;;;;;;8.40;6.78;;;;;;;26.92;40.24;100845.19;698629;28;19619;-63
2021/06/19 00:52:46;;;;;;;7.75;7.00;;;;;;;26.92;40.10;100848.78;699428;28;24314;-63
2021/06/19 00:53:07;;;;;;;7.75;7.05;;;;;;;26.92;40.36;100846.03;697131;28;67483;-62
2021/06/19 00:53:28;;;;;;;7.45;6.80;;;;;;;26.92;40.17;100850.75;702513;28;1316;-64
2021/06/19 00:53:49;;;;;;;7.50;6.90;;;;;;;26.91;40.13;100849.91;700887;28;22394;-62
2021/06/19 00:54:10;;;;;;;8.10;7.38;;;;;;;26.92;40.18;100842.44;701880;28;22457;-62
2021/06/19 00:54:33;;;;;;;7.55;6.95;;;;;;;26.92;40.18;100845.19;702862;28;23535;-63
2021/06/19 00:54:54;;;;;;;8.00;7.20;;;;;;;26.91;40.39;100841.59;701872;28;66739;-63
2021/06/19 00:55:15;;;;;;;7.80;7.15;;;;;;;26.91;40.54;100849.06;703095;28;21287;-62
2021/06/19 00:55:37;;;;;;;8.27;7.40;;;;;;;26.91;40.07;100846.31;702334;28;23479;-63
2021/06/19 00:55:58;;;;;;;9.55;7.65;;;;;;;26.88;40.00;100847.72;703281;28;15373;-62
2021/06/19 00:56:45;;;;;;;8.30;7.50;;;;;;;26.86;40.21;100847.16;698184;28;137886;-62
2021/06/19 00:57:07;;;;;;;8.07;7.38;;;;;;;26.85;40.33;100844.66;701255;28;44415;-62
2021/06/19 00:57:28;;;;;;;8.05;7.35;;;;;;;26.82;40.33;100842.47;702742;28;45416;-62
2021/06/19 00:57:49;;;;;;;7.95;7.30;;;;;;;26.78;40.78;100844.97;703711;28;16654;-63
2021/06/19 00:58:12;;;;;;;7.85;7.15;;;;;;;26.78;40.53;100850.53;701514;28;45274;-62
2021/06/19 00:58:33;;;;;;;7.80;7.20;;;;;;;26.76;40.79;100839.72;700742;28;92584;-62
2021/06/19 00:58:54;;;;;;;7.88;7.18;;;;;;;26.75;40.77;100845.53;702582;28;21538;-62
2021/06/19 00:59:16;;;;;;;8.25;7.40;;;;;;;26.74;40.55;100844.72;702760;28;22041;-62
2021/06/19 00:59:38;;;;;;;8.00;7.22;;;;;;;26.72;40.63;100838.63;703839;28;22388;-63
2021/06/19 00:59:59;;;;;;;8.20;7.50;;;;;;;26.73;40.52;100853.31;702014;28;46337;-63
2021/06/19 01:00:22;;;;;;;7.68;6.97;;;;;;;26.73;40.92;100839.47;703084;28;22426;-62
2021/06/19 01:00:43;;;;;;;7.60;6.90;;;;;;;26.72;40.98;100841.38;700248;28;51774;-62
2021/06/19 01:01:05;;;;;;;7.88;7.20;;;;;;;26.72;40.97;100841.38;702738;28;14484;-63
2021/06/19 01:01:27;;;;;;;7.97;7.28;;;;;;;26.72;40.56;100840.56;697306;28;36143;-63
2021/06/19 01:01:49;;;;;;;8.15;7.35;;;;;;;26.72;40.90;100838.63;699134;28;1070;-62
2021/06/19 01:02:10;;;;;;;8.15;7.22;;;;;;;26.73;40.86;100842.25;698360;28;46361;-63
2021/06/19 01:02:32;;;;;;;8.05;7.35;;;;;;;26.72;40.61;100848.88;695912;28;20817;-63
2021/06/19 01:02:54;;;;;;;8.38;7.60;;;;;;;26.71;41.17;100839.75;696659;28;47180;-63
2021/06/19 01:03:15;;;;;;;8.07;7.38;;;;;;;26.67;40.64;100841.41;696891;28;45222;-63
2021/06/19 01:03:37;;;;;;;7.78;7.10;;;;;;;26.66;41.14;100839.78;696652;28;21529;-63
2021/06/19 01:03:59;;;;;;;7.88;7.13;;;;;;;26.66;41.21;100847.25;695305;28;23839;-62
2021/06/19 01:04:20;;;;;;;8.20;7.40;;;;;;;26.65;41.25;100842.81;694686;28;67500;-62
2021/06/19 01:04:41;;;;;;;7.88;7.18;;;;;;;26.66;41.11;100841.69;700264;28;24637;-62
2021/06/19 01:05:04;;;;;;;11.00;7.57;;;;;;;26.66;41.14;100841.69;700503;28;21518;-63
2021/06/19 01:05:26;;;;;;;8.50;7.28;;;;;;;26.64;41.23;100835.59;699581;28;66614;-62
2021/06/19 01:05:49;;;;;;;7.93;7.13;;;;;;;26.65;41.46;100838.13;702721;28;43802;-62
2021/06/19 01:06:10;;;;;;;7.70;7.10;;;;;;;26.65;41.41;100840.03;699681;28;70490;-63
2021/06/19 01:06:33;;;;;;;8.13;7.15;;;;;;;26.62;41.42;100845.00;699424;28;1004;-62
2021/06/19 01:06:54;;;;;;;7.47;6.88;;;;;;;26.64;41.31;100838.38;697810;28;46653;-63
2021/06/19 01:07:15;;;;;;;7.90;7.22;;;;;;;26.61;41.35;100835.06;700274;28;1550;-62
2021/06/19 01:07:37;;;;;;;8.02;7.25;;;;;;;26.61;41.02;100837.81;698674;28;20558;-63
2021/06/19 01:07:59;;;;;;;8.85;7.28;;;;;;;26.64;41.11;100846.66;698307;28;45292;-63
2021/06/19 01:08:20;;;;;;;9.05;7.20;;;;;;;26.64;41.46;100847.50;699643;28;45312;-63
2021/06/19 01:08:41;;;;;;;7.72;6.93;;;;;;;26.64;41.48;100841.13;704104;28;21700;-63
2021/06/19 01:09:06;;;;;;;8.00;7.30;;;;;;;26.63;41.16;100843.09;704100;28;22216;-63
2021/06/19 01:09:27;;;;;;;7.57;6.90;;;;;;;26.62;41.19;100842.22;699068;28;116015;-63
2021/06/19 01:09:48;;;;;;;8.05;7.28;;;;;;;26.61;41.56;100843.38;704159;28;20944;-62
2021/06/19 01:10:11;;;;;;;8.60;7.15;;;;;;;26.61;41.55;100839.75;701284;28;22399;-63
2021/06/19 01:10:33;;;;;;;7.50;6.80;;;;;;;26.59;41.27;100842.78;700216;28;70379;-63
2021/06/19 01:10:54;;;;;;;7.63;7.00;;;;;;;26.59;41.54;100842.78;701192;28;46376;-63
2021/06/19 01:11:21;;;;;;;7.97;7.28;;;;;;;26.58;41.61;100838.38;702035;28;23755;-63
2021/06/19 01:11:45;;;;;;;7.90;7.10;;;;;;;26.57;41.39;100841.44;700955;28;60530;-62
2021/06/19 01:12:08;;;;;;;8.50;7.18;;;;;;;26.57;41.32;100838.66;702575;28;23490;-62
2021/06/19 01:12:29;;;;;;;7.80;7.07;;;;;;;26.56;41.60;100839.78;700051;28;67477;-63
2021/06/19 01:12:50;;;;;;;7.68;6.97;;;;;;;26.56;41.43;100837.00;701727;28;17498;-63
2021/06/19 01:13:11;;;;;;;7.43;6.35;;;;;;;26.55;41.80;100840.88;703153;28;901;-63
2021/06/19 01:13:33;;;;;;;7.60;6.90;;;;;;;26.54;41.76;100839.22;703394;28;18743;-63
2021/06/19 01:13:54;;;;;;;7.60;7.00;;;;;;;26.54;41.68;100839.22;701652;28;44138;-63
2021/06/19 01:14:15;;;;;;;8.32;7.22;;;;;;;26.54;41.92;100839.22;702841;28;22392;-63
2021/06/19 01:14:36;;;;;;;8.15;7.35;;;;;;;26.52;41.38;100841.44;702255;28;24356;-63
2021/06/19 01:14:57;;;;;;;7.53;6.93;;;;;;;26.51;41.90;100840.63;697998;28;23130;-63
2021/06/19 01:15:19;;;;;;;8.27;7.47;;;;;;;26.50;41.52;100838.13;699624;28;23504;-63
2021/06/19 01:15:41;;;;;;;8.35;7.65;;;;;;;26.48;41.76;100841.19;698995;28;44380;-63
2021/06/19 01:16:02;;;;;;;8.05;7.10;;;;;;;26.47;41.70;100841.47;700555;28;23542;-63
2021/06/19 01:16:25;;;;;;;7.70;7.00;;;;;;;26.46;42.15;100834.25;699114;28;925;-63
2021/06/19 01:16:50;;;;;;;7.90;7.25;;;;;;;26.45;42.20;100841.75;699392;28;44284;-62
2021/06/19 01:17:13;;;;;;;8.38;7.57;;;;;;;26.44;41.78;100835.38;698330;28;115269;-63
2021/06/19 01:17:35;;;;;;;8.77;7.50;;;;;;;26.43;42.03;100841.19;699824;28;69395;-62
2021/06/19 01:17:56;;;;;;;9.20;7.30;;;;;;;26.40;41.88;100836.22;702810;28;44508;-62
2021/06/19 01:18:18;;;;;;;10.03;7.07;;;;;;;26.40;42.54;100837.03;699144;28;39280;-62
2021/06/19 01:18:39;;;;;;;8.23;7.53;;;;;;;26.39;42.44;100840.09;696978;28;24450;-63
2021/06/19 01:19:00;;;;;;;8.60;7.80;;;;;;;26.37;42.28;100839.56;695771;28;46073;-63
2021/06/19 01:19:21;;;;;;;8.63;7.82;;;;;;;26.36;42.36;100846.19;695528;28;47113;-62
2021/06/19 01:19:42;;;;;;;8.45;7.65;;;;;;;26.35;42.20;100837.06;697257;28;22431;-63
2021/06/19 01:20:07;;;;;;;8.55;7.65;;;;;;;26.35;42.42;100844.53;698602;28;21684;-63
2021/06/19 01:20:34;;;;;;;8.23;7.43;;;;;;;26.35;42.47;100841.75;697139;28;114991;-63
2021/06/19 01:20:55;;;;;;;7.95;7.20;;;;;;;26.32;42.24;100832.09;697683;28;138173;-63
2021/06/19 01:21:18;;;;;;;8.23;7.43;;;;;;;26.32;42.22;100836.81;700816;28;45359;-63
2021/06/19 01:21:40;;;;;;;8.32;7.53;;;;;;;26.32;42.40;100836.81;700825;28;46370;-62
2021/06/19 01:22:01;;;;;;;8.10;7.40;;;;;;;26.29;42.42;100838.19;701333;28;47305;-63
2021/06/19 01:22:22;;;;;;;8.23;7.50;;;;;;;26.29;42.42;100842.91;703462;28;23522;-63
2021/06/19 01:22:45;;;;;;;8.20;7.50;;;;;;;26.28;42.58;100839.28;702468;28;22415;-62
2021/06/19 01:23:06;;;;;;;7.93;7.32;;;;;;;26.26;42.49;100833.22;699462;28;67528;-63
2021/06/19 01:23:28;;;;;;;7.97;7.28;;;;;;;26.23;42.42;100840.13;702904;28;22441;-63
2021/06/19 01:23:49;;;;;;;9.82;7.35;;;;;;;26.22;42.24;100837.63;702946;28;48030;-62
2021/06/19 01:24:13;;;;;;;8.23;7.18;;;;;;;26.19;42.45;100838.19;701967;28;47168;-63
2021/06/19 01:24:35;;;;;;;9.60;7.13;;;;;;;26.19;42.85;100843.72;701244;28;70320;-63
2021/06/19 01:24:58;;;;;;;8.43;7.63;;;;;;;26.18;43.00;100836.56;701085;28;68425;-62
2021/06/19 01:25:20;;;;;;;8.05;7.25;;;;;;;26.17;42.81;100832.13;700439;28;67482;-63
2021/06/19 01:25:41;;;;;;;7.72;7.13;;;;;;;26.16;43.12;100833.22;701924;28;44404;-62
2021/06/19 01:26:02;;;;;;;7.95;7.18;;;;;;;26.16;43.14;100827.69;700014;28;957;-63
2021/06/19 01:26:26;;;;;;;7.97;7.28;;;;;;;26.15;42.91;100832.41;699749;28;22404;-63
2021/06/19 01:26:47;;;;;;;8.30;7.60;;;;;;;26.13;42.51;100834.63;697762;28;91336;-62
2021/06/19 01:27:08;;;;;;;8.20;7.40;;;;;;;26.13;42.74;100834.63;699929;28;22455;-63
2021/06/19 01:27:30;;;;;;;7.82;7.13;;;;;;;26.13;42.73;100833.78;699026;28;22343;-63
2021/06/19 01:27:54;;;;;;;8.23;7.43;;;;;;;26.14;42.69;100835.44;700793;28;46347;-63
2021/06/19 01:28:15;;;;;;;8.10;7.30;;;;;;;26.12;42.95;100829.38;701406;28;61426;-63
2021/06/19 01:28:36;;;;;;;7.93;7.13;;;;;;;26.12;42.75;100830.19;702514;28;22484;-63
2021/06/19 01:28:58;;;;;;;8.00;7.20;;;;;;;26.14;42.64;100829.91;704727;28;902;-63
2021/06/19 01:29:21;;;;;;;8.43;7.57;;;;;;;26.12;42.79;100830.19;702178;28;66643;-62
2021/06/19 01:29:42;;;;;;;8.13;7.43;;;;;;;26.13;42.65;100831.84;702637;28;47352;-63
2021/06/19 01:30:07;;;;;;;8.80;7.38;;;;;;;26.11;42.55;100836.81;704658;28;929;-63
2021/06/19 01:30:28;;;;;;;8.10;7.40;;;;;;;26.12;42.83;100832.13;703405;28;32194;-63
2021/06/19 01:30:50;;;;;;;8.00;7.30;;;;;;;26.12;42.46;100835.72;703135;28;46383;-62
2021/06/19 01:31:12;;;;;;;7.82;7.18;;;;;;;26.11;43.05;100836.00;702151;28;43045;-63
2021/06/19 01:31:33;;;;;;;8.10;7.40;;;;;;;26.12;42.97;100832.13;701877;28;15708;-63
2021/06/19 01:32:02;;;;;;;8.10;7.40;;;;;;;26.12;42.74;100837.66;701559;28;60287;-63
2021/06/19 01:32:27;;;;;;;7.93;7.18;;;;;;;26.09;42.86;100830.75;703017;28;897;-63
2021/06/19 01:32:49;;;;;;;8.43;7.50;;;;;;;26.10;42.89;100832.41;696060;28;69374;-63
2021/06/19 01:33:10;;;;;;;7.97;7.20;;;;;;;26.11;43.22;100836.81;698096;28;23448;-63
2021/06/19 01:33:31;;;;;;;9.13;7.40;;;;;;;26.11;43.24;100838.78;698620;28;11007;-63
2021/06/19 01:33:53;;;;;;;8.85;7.32;;;;;;;26.11;43.48;100838.78;694474;28;46325;-63
2021/06/19 01:34:14;;;;;;;7.88;7.00;;;;;;;26.11;43.25;100833.22;695690;28;66795;-63
2021/06/19 01:34:35;;;;;;;8.05;7.07;;;;;;;26.09;43.27;100833.50;698635;28;10668;-63
2021/06/19 01:34:57;;;;;;;7.72;7.13;;;;;;;26.09;43.54;100833.50;700026;28;23165;-63
2021/06/19 01:35:18;;;;;;;7.82;7.18;;;;;;;26.10;43.13;100837.94;700094;28;9580;-63
2021/06/19 01:35:40;;;;;;;7.82;7.13;;;;;;;26.10;43.58;100837.94;699868;28;9395;-63
2021/06/19 01:36:02;;;;;;;7.68;6.95;;;;;;;26.10;43.00;100837.94;704232;28;1100;-63
2021/06/19 01:36:24;;;;;;;7.88;7.18;;;;;;;26.09;43.49;100836.28;701063;28;47435;-62
2021/06/19 01:36:46;;;;;;;8.80;7.15;;;;;;;26.10;43.36;100837.94;700129;28;34873;-62
2021/06/19 01:37:07;;;;;;;7.90;7.20;;;;;;;26.08;43.06;100835.47;702185;28;41766;-62
2021/06/19 01:37:28;;;;;;;8.15;7.43;;;;;;;26.07;43.24;100833.78;703329;28;22423;-63
2021/06/19 01:37:51;;;;;;;8.40;7.60;;;;;;;26.09;43.14;100839.03;702282;28;13889;-62
2021/06/19 01:38:13;;;;;;;8.20;7.47;;;;;;;26.08;43.01;100840.16;699819;28;67982;-62
2021/06/19 01:38:37;;;;;;;8.52;7.72;;;;;;;26.07;43.42;100836.56;702956;28;47321;-62
2021/06/19 01:38:59;;;;;;;8.40;7.57;;;;;;;26.06;43.28;100834.88;697638;28;115333;-62
2021/06/19 01:39:21;;;;;;;8.57;7.70;;;;;;;26.07;43.47;100841.28;700996;28;21540;-62
2021/06/19 01:39:44;;;;;;;7.90;7.20;;;;;;;26.08;43.03;100834.59;700172;28;46323;-63
2021/06/19 01:40:08;;;;;;;7.57;6.88;;;;;;;26.08;43.14;100838.22;698705;28;69429;-63
2021/06/19 01:40:30;;;;;;;10.43;7.53;;;;;;;26.07;43.16;100839.31;698770;28;90677;-63
2021/06/19 01:40:51;;;;;;;8.55;7.65;;;;;;;26.06;43.25;100840.41;700512;28;45289;-63
2021/06/19 01:41:14;;;;;;;8.70;7.80;;;;;;;26.07;43.28;100835.75;702553;28;22550;-62
2021/06/19 01:41:35;;;;;;;8.05;7.35;;;;;;;26.06;43.42;100834.06;700714;28;69415;-63
2021/06/19 01:41:56;;;;;;;7.20;6.63;;;;;;;26.06;43.08;100839.59;703446;28;23429;-63
2021/06/19 01:42:17;;;;;;;7.97;7.28;;;;;;;26.05;43.07;100832.41;701205;28;24325;-63
2021/06/19 01:42:40;;;;;;;8.07;7.43;;;;;;;26.04;43.05;100833.53;701128;28;23395;-63
2021/06/19 01:43:01;;;;;;;8.13;7.43;;;;;;;26.02;43.21;100827.41;700322;28;69400;-63
2021/06/19 01:43:22;;;;;;;8.13;7.32;;;;;;;26.03;43.36;100834.63;704075;28;23672;-63